createdAt,value
2023-12-30T00:00:32.088Z,78.16
2023-12-30T00:03:19.797Z,78.15
2023-12-30T00:05:47.609Z,78.19
2023-12-30T00:08:15.541Z,78.24
2023-12-30T00:10:43.928Z,78.27
2023-12-30T00:13:12.250Z,78.33
2023-12-30T00:15:40.093Z,78.46
2023-12-30T00:18:07.983Z,78.54
2023-12-30T00:20:35.831Z,78.60
2023-12-30T00:23:04.017Z,78.65
2023-12-30T00:25:31.952Z,78.72
2023-12-30T00:27:59.814Z,78.80
2023-12-30T00:30:27.686Z,78.87
2023-12-30T00:32:55.527Z,79.00
2023-12-30T00:35:23.810Z,79.07
2023-12-30T00:37:54.149Z,79.23
2023-12-30T00:40:26.673Z,79.31
2023-12-30T00:42:55.315Z,79.50
2023-12-30T00:45:23.098Z,79.63
2023-12-30T00:47:50.929Z,79.72
2023-12-30T00:50:18.770Z,79.80
2023-12-30T00:52:46.517Z,79.87
2023-12-30T00:55:14.738Z,79.94
2023-12-30T00:57:42.604Z,80.09
2023-12-30T01:00:11.365Z,80.22
2023-12-30T01:02:39.048Z,80.18
2023-12-30T01:05:07.696Z,80.17
2023-12-30T01:07:35.509Z,80.14
2023-12-30T01:10:03.455Z,80.12
2023-12-30T01:12:31.261Z,80.11
2023-12-30T01:14:58.964Z,80.15
2023-12-30T01:17:26.664Z,80.27
2023-12-30T01:19:54.356Z,80.37
2023-12-30T01:22:22.126Z,80.43
2023-12-30T01:27:50.837Z,80.34
2023-12-30T01:30:18.702Z,80.41
2023-12-30T01:32:47.088Z,80.28
2023-12-30T01:35:17.021Z,80.11
2023-12-30T01:37:44.914Z,80.03
2023-12-30T01:40:13.176Z,79.90
2023-12-30T01:42:42.082Z,79.82
2023-12-30T01:45:10.337Z,79.68
2023-12-30T01:47:39.082Z,79.63
2023-12-30T01:50:09.962Z,79.67
2023-12-30T01:52:38.666Z,79.61
2023-12-30T01:55:09.444Z,79.55
2023-12-30T01:57:37.344Z,79.63
2023-12-30T02:00:06.140Z,79.69
2023-12-30T02:02:34.095Z,79.82
2023-12-30T02:05:02.031Z,79.86
2023-12-30T02:07:29.897Z,79.86
2023-12-30T02:09:57.862Z,79.90
2023-12-30T02:12:25.588Z,79.93
2023-12-30T02:14:53.323Z,79.89
2023-12-30T02:17:21.053Z,79.91
2023-12-30T02:19:51.884Z,79.94
2023-12-30T02:22:20.924Z,79.99
2023-12-30T02:24:48.740Z,79.98
2023-12-30T02:27:16.445Z,80.03
2023-12-30T02:29:45.799Z,80.07
2023-12-30T02:32:13.537Z,80.13
2023-12-30T02:34:41.380Z,80.11
2023-12-30T02:37:09.089Z,80.07
2023-12-30T02:39:36.887Z,80.00
2023-12-30T02:42:05.098Z,79.96
2023-12-30T02:44:32.782Z,79.99
2023-12-30T02:47:00.604Z,79.92
2023-12-30T02:49:29.176Z,79.91
2023-12-30T02:51:58.944Z,79.86
2023-12-30T02:54:27.779Z,79.84
2023-12-30T02:56:57.109Z,79.70
2023-12-30T02:59:24.884Z,79.56
2023-12-30T03:01:52.583Z,79.45
2023-12-30T03:04:20.482Z,79.34
2023-12-30T03:06:48.354Z,79.26
2023-12-30T03:09:16.332Z,79.13
2023-12-30T03:11:44.092Z,78.99
2023-12-30T03:14:14.103Z,78.83
2023-12-30T03:16:41.795Z,78.77
2023-12-30T03:19:09.598Z,78.74
2023-12-30T03:21:37.521Z,78.68
2023-12-30T03:24:05.425Z,78.49
2023-12-30T03:26:33.243Z,78.33
2023-12-30T03:29:00.971Z,78.26
2023-12-30T03:31:29.063Z,78.00
2023-12-30T03:33:57.826Z,77.79
2023-12-30T03:36:25.625Z,77.81
2023-12-30T03:38:54.647Z,77.78
2023-12-30T03:41:23.133Z,77.63
2023-12-30T03:43:51.151Z,77.53
2023-12-30T03:46:19.129Z,77.33
2023-12-30T03:48:47.102Z,77.20
2023-12-30T03:51:15.057Z,77.06
2023-12-30T03:53:42.878Z,76.95
2023-12-30T03:56:13.221Z,76.99
2023-12-30T03:58:41.091Z,76.95
2023-12-30T04:01:08.852Z,76.69
2023-12-30T04:03:36.923Z,76.41
2023-12-30T04:06:04.743Z,76.43
2023-12-30T04:08:32.399Z,76.40
2023-12-30T04:11:00.072Z,76.30
2023-12-30T04:13:27.983Z,76.09
2023-12-30T04:15:55.898Z,75.98
2023-12-30T04:18:25.858Z,75.87
2023-12-30T04:20:53.678Z,75.99
2023-12-30T04:23:21.652Z,75.90
2023-12-30T04:25:49.482Z,75.84
2023-12-30T04:28:19.765Z,75.70
2023-12-30T04:30:47.551Z,75.63
2023-12-30T04:33:15.366Z,75.54
2023-12-30T04:35:43.209Z,75.53
2023-12-30T04:38:11.004Z,75.68
2023-12-30T04:40:38.878Z,75.65
2023-12-30T04:43:06.821Z,75.61
2023-12-30T04:45:34.618Z,75.55
2023-12-30T04:48:02.481Z,75.54
2023-12-30T04:50:30.400Z,75.53
2023-12-30T04:52:58.098Z,75.45
2023-12-30T04:55:26.539Z,75.54
2023-12-30T04:57:54.340Z,75.41
2023-12-30T05:00:24.032Z,75.51
2023-12-30T05:02:52.083Z,75.52
2023-12-30T05:05:20.001Z,75.30
2023-12-30T05:07:47.716Z,75.43
2023-12-30T05:10:15.486Z,75.44
2023-12-30T05:12:43.519Z,75.43
2023-12-30T05:15:14.628Z,75.39
2023-12-30T05:17:42.920Z,75.40
2023-12-30T05:20:11.681Z,75.53
2023-12-30T05:22:42.299Z,75.61
2023-12-30T05:25:10.810Z,75.53
2023-12-30T05:27:39.160Z,75.74
2023-12-30T05:30:09.208Z,75.79
2023-12-30T05:32:37.587Z,75.78
2023-12-30T05:35:06.044Z,75.66
2023-12-30T05:37:34.197Z,75.78
2023-12-30T05:40:02.640Z,75.89
2023-12-30T05:42:31.732Z,75.98
2023-12-30T05:44:59.950Z,76.06
2023-12-30T05:47:27.803Z,75.96
2023-12-30T05:49:56.276Z,76.02
2023-12-30T05:52:24.474Z,75.92
2023-12-30T05:54:52.323Z,75.86
2023-12-30T05:57:20.001Z,75.87
2023-12-30T05:59:47.695Z,75.48
2023-12-30T06:02:15.398Z,75.30
2023-12-30T06:04:43.550Z,75.46
2023-12-30T06:07:11.378Z,74.95
2023-12-30T06:09:39.179Z,74.75
2023-12-30T06:12:07.393Z,74.42
2023-12-30T06:14:36.401Z,74.65
2023-12-30T06:17:04.501Z,75.43
2023-12-30T06:19:34.741Z,77.17
2023-12-30T06:22:02.640Z,77.91
2023-12-30T06:24:30.442Z,78.79
2023-12-30T06:26:58.372Z,79.83
2023-12-30T06:29:32.237Z,81.12
2023-12-30T06:32:01.194Z,82.02
2023-12-30T06:34:28.940Z,82.68
2023-12-30T06:36:56.883Z,83.25
2023-12-30T06:39:24.770Z,83.91
2023-12-30T06:41:52.555Z,84.81
2023-12-30T06:44:21.575Z,84.76
2023-12-30T06:46:51.521Z,84.88
2023-12-30T06:49:19.464Z,85.21
2023-12-30T06:51:47.770Z,85.91
2023-12-30T06:54:15.524Z,85.56
2023-12-30T06:56:45.365Z,85.57
2023-12-30T06:59:15.550Z,85.43
2023-12-30T07:01:43.629Z,85.57
2023-12-30T07:04:11.428Z,85.58
2023-12-30T07:06:39.854Z,85.75
2023-12-30T07:09:08.430Z,85.71
2023-12-30T07:11:36.775Z,85.91
2023-12-30T07:14:04.599Z,86.13
2023-12-30T07:16:32.388Z,86.14
2023-12-30T07:19:00.175Z,86.06
2023-12-30T07:21:27.917Z,86.04
2023-12-30T07:23:55.744Z,86.03
2023-12-30T07:26:23.483Z,85.84
2023-12-30T07:28:51.197Z,85.61
2023-12-30T07:31:19.061Z,85.38
2023-12-30T07:33:46.913Z,85.02
2023-12-30T07:36:15.187Z,84.84
2023-12-30T07:38:42.886Z,84.66
2023-12-30T07:41:15.385Z,84.14
2023-12-30T07:43:43.389Z,83.60
2023-12-30T07:46:11.349Z,83.12
2023-12-30T07:48:39.584Z,82.35
2023-12-30T07:51:08.019Z,82.24
2023-12-30T07:53:35.980Z,82.05
2023-12-30T07:56:04.399Z,82.02
2023-12-30T07:58:32.121Z,81.38
2023-12-30T08:01:00.436Z,81.52
2023-12-30T08:03:28.285Z,81.58
2023-12-30T08:05:56.104Z,81.25
2023-12-30T08:08:24.206Z,81.29
2023-12-30T08:10:51.995Z,80.89
2023-12-30T08:13:19.732Z,81.10
2023-12-30T08:15:47.541Z,80.62
2023-12-30T08:18:15.357Z,80.60
2023-12-30T08:20:43.236Z,80.51
2023-12-30T08:23:10.992Z,80.55
2023-12-30T08:25:38.994Z,80.38
2023-12-30T08:28:09.307Z,80.36
2023-12-30T08:30:37.054Z,80.19
2023-12-30T08:33:09.511Z,79.89
2023-12-30T08:35:37.888Z,79.95
2023-12-30T08:38:05.683Z,80.09
2023-12-30T08:40:36.156Z,80.40
2023-12-30T08:43:05.219Z,80.53
2023-12-30T08:45:33.316Z,80.31
2023-12-30T08:48:01.119Z,80.72
2023-12-30T08:50:28.934Z,80.94
2023-12-30T08:52:59.598Z,81.26
2023-12-30T08:55:27.817Z,81.95
2023-12-30T08:57:55.838Z,82.32
2023-12-30T09:00:23.859Z,82.83
2023-12-30T09:02:51.885Z,83.40
2023-12-30T09:05:20.342Z,83.98
2023-12-30T09:07:51.258Z,84.58
2023-12-30T09:10:20.162Z,84.70
2023-12-30T09:12:47.999Z,85.04
2023-12-30T09:15:15.798Z,85.31
2023-12-30T09:17:43.748Z,85.28
2023-12-30T09:20:11.817Z,85.25
2023-12-30T09:22:39.685Z,85.37
2023-12-30T09:25:08.457Z,85.45
2023-12-30T09:27:36.456Z,85.48
2023-12-30T09:30:04.976Z,85.57
2023-12-30T09:32:33.113Z,85.64
2023-12-30T09:35:03.882Z,85.69
2023-12-30T09:37:32.099Z,85.68
2023-12-30T09:40:00.935Z,85.77
2023-12-30T09:42:28.921Z,85.73
2023-12-30T09:44:59.284Z,85.63
2023-12-30T09:47:29.032Z,85.55
2023-12-30T09:49:57.205Z,85.29
2023-12-30T09:52:25.194Z,84.96
2023-12-30T09:54:53.776Z,84.73
2023-12-30T09:57:22.261Z,84.11
2023-12-30T09:59:52.273Z,83.15
2023-12-30T10:02:20.247Z,82.89
2023-12-30T10:04:51.190Z,82.52
2023-12-30T10:07:20.314Z,82.21
2023-12-30T10:09:48.564Z,81.37
2023-12-30T10:12:16.593Z,80.92
2023-12-30T10:14:44.313Z,80.85
2023-12-30T10:17:12.072Z,80.70
2023-12-30T10:19:39.889Z,80.19
2023-12-30T10:22:07.731Z,80.00
2023-12-30T10:24:35.634Z,79.55
2023-12-30T10:27:06.098Z,78.25
2023-12-30T10:29:46.069Z,78.42
2023-12-30T10:32:22.253Z,78.24
2023-12-30T10:34:50.356Z,78.12
2023-12-30T10:37:18.658Z,77.90
2023-12-30T10:39:49.891Z,77.83
2023-12-30T10:42:17.661Z,77.51
2023-12-30T10:44:45.603Z,77.81
2023-12-30T10:47:17.167Z,77.42
2023-12-30T10:49:49.908Z,77.10
2023-12-30T10:52:28.259Z,77.17
2023-12-30T10:55:10.554Z,77.29
2023-12-30T10:57:45.581Z,77.82
2023-12-30T11:00:16.040Z,77.42
2023-12-30T11:02:44.254Z,76.91
2023-12-30T11:05:20.511Z,76.49
2023-12-30T11:07:48.896Z,76.35
2023-12-30T11:10:22.468Z,76.19
2023-12-30T11:12:51.934Z,76.61
2023-12-30T11:15:39.517Z,76.45
2023-12-30T11:18:12.063Z,76.10
2023-12-30T11:20:47.346Z,75.72
2023-12-30T11:23:16.240Z,75.63
2023-12-30T11:25:47.294Z,75.50
2023-12-30T11:28:22.549Z,75.70
2023-12-30T11:30:59.585Z,76.33
2023-12-30T11:33:28.310Z,76.15
2023-12-30T11:35:57.263Z,76.34
2023-12-30T11:38:32.041Z,77.52
2023-12-30T11:41:02.312Z,78.31
2023-12-30T11:43:31.239Z,79.33
2023-12-30T11:46:01.291Z,80.06
2023-12-30T11:48:31.350Z,80.35
2023-12-30T11:50:59.094Z,80.55
2023-12-30T11:53:27.351Z,80.93
2023-12-30T11:55:55.720Z,81.20
2023-12-30T11:58:23.937Z,81.52
2023-12-30T12:00:51.772Z,82.23
2023-12-30T12:03:19.559Z,82.88
2023-12-30T12:05:47.390Z,83.13
2023-12-30T12:08:17.203Z,83.67
2023-12-30T12:10:44.944Z,84.10
2023-12-30T12:13:24.734Z,84.23
2023-12-30T12:15:53.957Z,84.31
2023-12-30T12:18:22.540Z,84.82
2023-12-30T12:20:54.540Z,84.73
2023-12-30T12:23:25.762Z,84.88
2023-12-30T12:25:53.524Z,85.11
2023-12-30T12:28:24.141Z,85.38
2023-12-30T12:30:52.255Z,85.22
2023-12-30T12:33:21.225Z,85.18
2023-12-30T12:35:49.419Z,84.86
2023-12-30T12:38:17.538Z,84.49
2023-12-30T12:40:46.658Z,84.35
2023-12-30T12:43:14.538Z,84.29
2023-12-30T12:45:42.213Z,84.27
2023-12-30T12:48:10.144Z,84.32
2023-12-30T12:50:37.944Z,84.31
2023-12-30T12:53:05.847Z,84.03
2023-12-30T12:55:34.307Z,84.04
2023-12-30T12:58:02.180Z,84.02
2023-12-30T13:00:29.956Z,84.00
2023-12-30T13:02:58.933Z,83.83
2023-12-30T13:05:27.710Z,83.78
2023-12-30T13:07:55.644Z,83.88
2023-12-30T13:10:42.773Z,84.10
2023-12-30T13:13:11.220Z,84.29
2023-12-30T13:15:39.881Z,84.46
2023-12-30T13:18:13.249Z,84.93
2023-12-30T13:20:43.546Z,84.86
2023-12-30T13:23:13.326Z,85.15
2023-12-30T13:25:41.187Z,85.27
2023-12-30T13:28:09.754Z,85.49
2023-12-30T13:30:37.671Z,85.76
2023-12-30T13:33:10.413Z,85.71
2023-12-30T13:35:40.181Z,85.57
2023-12-30T13:38:13.916Z,85.48
2023-12-30T13:40:43.918Z,85.35
2023-12-30T13:43:12.244Z,85.04
2023-12-30T13:45:44.889Z,84.38
2023-12-30T13:48:25.509Z,83.70
2023-12-30T13:50:56.818Z,83.16
2023-12-30T13:53:26.252Z,83.05
2023-12-30T13:55:57.817Z,82.92
2023-12-30T13:58:27.601Z,82.49
2023-12-30T14:00:57.179Z,82.40
2023-12-30T14:03:26.624Z,82.10
2023-12-30T14:05:54.636Z,82.08
2023-12-30T14:08:28.655Z,81.75
2023-12-30T14:10:56.502Z,81.73
2023-12-30T14:13:24.981Z,81.92
2023-12-30T14:15:53.437Z,82.00
2023-12-30T14:18:21.577Z,82.08
2023-12-30T14:20:50.410Z,82.25
2023-12-30T14:23:18.622Z,82.25
2023-12-30T14:25:46.810Z,82.37
2023-12-30T14:28:14.790Z,82.53
2023-12-30T14:30:44.254Z,82.56
2023-12-30T14:33:12.660Z,82.67
2023-12-30T14:35:40.509Z,82.82
2023-12-30T14:38:08.435Z,82.93
2023-12-30T14:40:36.658Z,83.03
2023-12-30T14:43:04.970Z,83.22
2023-12-30T14:45:32.974Z,83.30
2023-12-30T14:48:01.953Z,83.41
2023-12-30T14:50:30.523Z,83.61
2023-12-30T14:52:58.496Z,83.84
2023-12-30T14:55:26.267Z,83.90
2023-12-30T14:57:54.108Z,84.01
2023-12-30T15:00:24.265Z,84.03
2023-12-30T15:02:53.932Z,84.03
2023-12-30T15:05:23.730Z,84.01
2023-12-30T15:07:55.744Z,84.04
2023-12-30T15:10:25.863Z,84.00
2023-12-30T15:12:54.566Z,84.01
2023-12-30T15:15:22.329Z,83.90
2023-12-30T15:17:51.174Z,83.82
2023-12-30T15:20:20.730Z,83.73
2023-12-30T15:22:48.675Z,83.70
2023-12-30T15:25:17.924Z,83.76
2023-12-30T15:27:52.888Z,83.73
2023-12-30T15:30:24.263Z,83.69
2023-12-30T15:32:53.827Z,83.68
2023-12-30T15:35:21.846Z,83.70
2023-12-30T15:37:49.658Z,83.65
2023-12-30T15:40:17.683Z,83.63
2023-12-30T15:42:45.444Z,83.46
2023-12-30T15:45:16.006Z,83.31
2023-12-30T15:47:44.977Z,83.10
2023-12-30T15:50:12.943Z,82.89
2023-12-30T15:52:41.044Z,83.00
2023-12-30T15:55:09.809Z,82.74
2023-12-30T15:57:37.603Z,82.65
2023-12-30T16:00:09.811Z,82.57
2023-12-30T16:02:37.673Z,82.57
2023-12-30T16:05:05.568Z,82.43
2023-12-30T16:07:33.408Z,82.25
2023-12-30T16:10:01.248Z,82.14
2023-12-30T16:12:29.093Z,82.15
2023-12-30T16:14:57.378Z,82.02
2023-12-30T16:17:25.100Z,81.87
2023-12-30T16:19:54.454Z,81.78
2023-12-30T16:22:22.231Z,81.65
2023-12-30T16:24:49.985Z,81.67
2023-12-30T16:27:18.131Z,81.39
2023-12-30T16:29:47.366Z,81.25
2023-12-30T16:32:15.842Z,81.14
2023-12-30T16:34:43.630Z,80.93
2023-12-30T16:37:11.505Z,81.05
2023-12-30T16:39:41.217Z,81.22
2023-12-30T16:42:08.941Z,81.03
2023-12-30T16:44:36.646Z,80.90
2023-12-30T16:47:04.902Z,80.60
2023-12-30T16:49:32.715Z,80.76
2023-12-30T16:52:00.749Z,80.51
2023-12-30T16:54:28.668Z,80.63
2023-12-30T16:56:56.500Z,80.65
2023-12-30T16:59:24.263Z,80.54
2023-12-30T17:01:52.139Z,80.70
2023-12-30T17:04:22.227Z,80.56
2023-12-30T17:06:49.969Z,80.51
2023-12-30T17:09:17.661Z,80.29
2023-12-30T17:11:45.378Z,80.33
2023-12-30T17:14:14.596Z,80.20
2023-12-30T17:16:42.588Z,80.46
2023-12-30T17:19:10.716Z,80.45
2023-12-30T17:21:38.746Z,80.40
2023-12-30T17:24:08.201Z,80.46
2023-12-30T17:26:36.612Z,80.42
2023-12-30T17:29:04.499Z,80.60
2023-12-30T17:31:32.753Z,80.52
2023-12-30T17:34:00.787Z,80.13
2023-12-30T17:36:28.817Z,80.00
2023-12-30T17:38:57.639Z,79.87
2023-12-30T17:41:25.361Z,79.26
2023-12-30T17:43:53.059Z,79.42
2023-12-30T17:46:20.992Z,79.47
2023-12-30T17:48:48.821Z,78.90
2023-12-30T17:51:16.549Z,78.82
2023-12-30T17:53:44.288Z,78.76
2023-12-30T17:56:11.984Z,78.83
2023-12-30T17:58:40.574Z,78.92
2023-12-30T18:01:10.442Z,78.56
2023-12-30T18:03:38.642Z,78.75
2023-12-30T18:06:07.529Z,78.78
2023-12-30T18:08:35.621Z,78.70
2023-12-30T18:11:04.981Z,78.66
2023-12-30T18:13:33.477Z,78.33
2023-12-30T18:16:01.315Z,78.32
2023-12-30T18:18:29.210Z,78.52
2023-12-30T18:20:57.681Z,78.33
2023-12-30T18:23:25.420Z,78.34
2023-12-30T18:25:53.173Z,78.17
2023-12-30T18:28:20.936Z,77.85
2023-12-30T18:30:48.718Z,77.58
2023-12-30T18:33:16.585Z,77.13
2023-12-30T18:35:44.669Z,77.14
2023-12-30T18:38:12.512Z,76.95
2023-12-30T18:40:40.932Z,76.55
2023-12-30T18:43:08.765Z,77.01
2023-12-30T18:45:37.354Z,76.80
2023-12-30T18:48:05.888Z,76.52
2023-12-30T18:50:34.636Z,76.52
2023-12-30T18:53:02.552Z,76.40
2023-12-30T18:55:30.437Z,76.69
2023-12-30T18:57:58.224Z,76.78
2023-12-30T19:00:27.074Z,76.57
2023-12-30T19:02:54.810Z,76.26
2023-12-30T19:05:23.118Z,76.49
2023-12-30T19:07:54.116Z,76.37
2023-12-30T19:10:24.081Z,76.49
2023-12-30T19:12:51.953Z,76.43
2023-12-30T19:15:21.188Z,76.59
2023-12-30T19:17:49.734Z,76.46
2023-12-30T19:20:17.820Z,76.07
2023-12-30T19:22:45.697Z,76.30
2023-12-30T19:25:14.039Z,76.34
2023-12-30T19:27:41.817Z,76.29
2023-12-30T19:30:10.438Z,76.30
2023-12-30T19:32:38.237Z,75.91
2023-12-30T19:35:07.212Z,76.10
2023-12-30T19:37:35.554Z,76.46
2023-12-30T19:40:04.889Z,76.36
2023-12-30T19:42:32.633Z,75.90
2023-12-30T19:45:02.654Z,75.81
2023-12-30T19:47:30.428Z,75.53
2023-12-30T19:49:58.214Z,75.71
2023-12-30T19:52:26.011Z,75.77
2023-12-30T19:54:53.779Z,75.73
2023-12-30T19:57:22.354Z,75.76
2023-12-30T19:59:50.565Z,75.92
2023-12-30T20:02:18.307Z,76.02
2023-12-30T20:04:46.106Z,75.65
2023-12-30T20:07:14.323Z,75.90
2023-12-30T20:09:43.289Z,75.83
2023-12-30T20:12:11.324Z,75.41
2023-12-30T20:14:39.263Z,75.81
2023-12-30T20:17:06.991Z,75.62
2023-12-30T20:19:35.937Z,75.67
2023-12-30T20:22:03.810Z,75.62
2023-12-30T20:24:31.553Z,75.49
2023-12-30T20:26:59.309Z,75.58
2023-12-30T20:29:27.222Z,75.68
2023-12-30T20:31:57.213Z,75.68
2023-12-30T20:34:25.761Z,75.71
2023-12-30T20:36:53.919Z,75.74
2023-12-30T20:39:22.109Z,75.72
2023-12-30T20:41:49.802Z,75.77
2023-12-30T20:44:17.497Z,75.58
2023-12-30T20:46:47.809Z,75.32
2023-12-30T20:49:15.775Z,75.56
2023-12-30T20:51:49.168Z,75.56
2023-12-30T20:54:17.549Z,75.27
2023-12-30T20:56:46.431Z,75.51
2023-12-30T20:59:22.779Z,75.59
2023-12-30T21:01:50.579Z,75.70
2023-12-30T21:04:18.586Z,75.68
2023-12-30T21:06:46.868Z,75.86
2023-12-30T21:09:15.781Z,75.84
2023-12-30T21:11:43.867Z,75.73
2023-12-30T21:14:12.074Z,75.94
2023-12-30T21:16:41.281Z,76.05
2023-12-30T21:19:10.133Z,76.15
2023-12-30T21:21:40.522Z,76.16
2023-12-30T21:24:08.669Z,76.39
2023-12-30T21:26:36.364Z,76.58
2023-12-30T21:29:04.121Z,77.11
2023-12-30T21:31:31.924Z,77.85
2023-12-30T21:33:59.726Z,79.12
2023-12-30T21:36:28.766Z,79.68
2023-12-30T21:38:56.707Z,80.11
2023-12-30T21:41:24.708Z,80.51
2023-12-30T21:43:52.556Z,80.66
2023-12-30T21:46:20.421Z,80.83
2023-12-30T21:48:48.283Z,80.89
2023-12-30T21:51:18.607Z,81.05
2023-12-30T21:53:46.460Z,81.19
2023-12-30T21:56:15.026Z,81.34
2023-12-30T21:58:42.754Z,81.67
2023-12-30T22:01:10.606Z,81.52
2023-12-30T22:03:38.425Z,81.68
2023-12-30T22:06:06.926Z,81.56
2023-12-30T22:08:34.651Z,81.65
2023-12-30T22:11:02.338Z,81.59
2023-12-30T22:13:30.267Z,81.66
2023-12-30T22:15:58.651Z,81.73
2023-12-30T22:18:26.409Z,81.83
2023-12-30T22:20:54.153Z,81.73
2023-12-30T22:23:21.953Z,81.74
2023-12-30T22:25:50.049Z,81.81
2023-12-30T22:28:18.110Z,81.78
2023-12-30T22:30:45.829Z,81.86
2023-12-30T22:33:13.949Z,81.84
2023-12-30T22:35:42.529Z,81.95
2023-12-30T22:38:12.739Z,82.38
2023-12-30T22:40:40.456Z,82.25
2023-12-30T22:43:08.244Z,82.33
2023-12-30T22:45:37.920Z,82.27
2023-12-30T22:48:06.748Z,82.35
2023-12-30T22:50:34.624Z,82.44
2023-12-30T22:53:02.617Z,82.40
2023-12-30T22:55:30.617Z,82.57
2023-12-30T22:57:58.421Z,82.54
2023-12-30T23:00:28.502Z,82.63
2023-12-30T23:02:56.458Z,82.73
2023-12-30T23:05:24.399Z,82.71
2023-12-30T23:07:52.871Z,82.76
2023-12-30T23:10:20.598Z,82.76
2023-12-30T23:12:48.629Z,82.81
2023-12-30T23:15:19.758Z,82.84
2023-12-30T23:17:47.506Z,82.83
2023-12-30T23:20:15.478Z,82.93
2023-12-30T23:22:43.230Z,83.06
2023-12-30T23:25:11.480Z,83.43
2023-12-30T23:27:40.227Z,83.59
2023-12-30T23:30:09.006Z,83.68
2023-12-30T23:32:37.882Z,83.84
2023-12-30T23:35:06.185Z,84.03
2023-12-30T23:37:34.302Z,84.27
2023-12-30T23:40:02.498Z,84.43
2023-12-30T23:42:32.710Z,84.71
2023-12-30T23:45:00.455Z,84.76
2023-12-30T23:47:28.478Z,84.88
2023-12-30T23:49:56.460Z,85.06
2023-12-30T23:52:24.290Z,85.04
2023-12-30T23:54:53.773Z,85.18
2023-12-30T23:57:21.496Z,85.26
2023-12-30T23:59:49.222Z,85.38
